»·PEaware :: N973SE KSNA-KNKX

N973SE :: KSNA-KNKX

FLIGHT INFORMATION

Flight Status: Arrived
Operator: Privately registered:
United States
More flights under this callsign
Pilot: Stig E. (4778)
Aircraft: CESSNA 310
(C310)
More flights by this aircraft type
Origin: KSNA John Wayne-Orange Co
United States
Destination: KNKX Miramar MCAS/Mitscher
United States
More flights between these airports :: More routes between these airports
Route: CARIF VITKO
File this flight plan on PilotEdge
Remarks:
Altitude:
(Current/Filed)
2,500ft
Speed:
(Current/Filed)
170kts
Departed: 05-Feb-19 11:42 PM
Arrived: 06-Feb-19 12:07 AM
Distance/Time
Traveled:
60nm/0:25
Distance/Time
To Go:
Arrived

Flight Plot

Page will automatically refresh every two minutes.

Flight plan parsing failed; only flown route is shown


Map Options




Map Legend


Flown Route
Filed Route
Departure Airport
Arrival Airport
Navaid (VOR, NDB)
Fix

Horizontal Profiles

Position Reports

Time Latitude Longitude Heading Altitude Ground
Speed
05-Feb-19 23:27 33.671199 -117.868020 211 59ft 0kts
05-Feb-19 23:28 33.671199 -117.868020 211 59ft 0kts
05-Feb-19 23:29 33.671199 -117.868020 211 59ft 0kts
05-Feb-19 23:30 33.671199 -117.868020 211 59ft 0kts
05-Feb-19 23:31 33.671199 -117.868020 211 59ft 0kts
05-Feb-19 23:32 33.671199 -117.868020 211 59ft 0kts
05-Feb-19 23:33 33.671199 -117.868020 211 59ft 0kts
05-Feb-19 23:34 33.671199 -117.868020 211 59ft 0kts
05-Feb-19 23:35 33.671199 -117.868020 211 59ft 0kts
05-Feb-19 23:36 33.672356 -117.867972 27 60ft 14kts
05-Feb-19 23:37 33.676660 -117.865478 26 59ft 20kts
05-Feb-19 23:38 33.679976 -117.863676 301 60ft 0kts
05-Feb-19 23:39 33.679976 -117.863676 301 60ft 0kts
05-Feb-19 23:40 33.680080 -117.863874 300 60ft 5kts
05-Feb-19 23:41 33.666480 -117.872878 210 532ft 117kts
05-Feb-19 23:42 33.633033 -117.857533 118 1196ft 181kts
05-Feb-19 23:43 33.606847 -117.809914 146 1980ft 165kts
05-Feb-19 23:44 33.568574 -117.777561 147 2503ft 181kts
05-Feb-19 23:45 33.526011 -117.741546 146 2500ft 186kts
05-Feb-19 23:46 33.484028 -117.706096 146 2503ft 184kts
05-Feb-19 23:47 33.441975 -117.670635 144 2506ft 185kts
05-Feb-19 23:48 33.400136 -117.635359 144 2487ft 178kts
05-Feb-19 23:49 33.360641 -117.602111 144 2490ft 170kts
05-Feb-19 23:50 33.322116 -117.569730 144 2490ft 168kts
05-Feb-19 23:51 33.283764 -117.537525 144 2490ft 168kts
05-Feb-19 23:52 33.245379 -117.505288 143 2490ft 168kts
05-Feb-19 23:53 33.207175 -117.473338 143 2490ft 167kts
05-Feb-19 23:54 33.177275 -117.448304 143 2490ft 165kts
05-Feb-19 23:55 33.139867 -117.417017 144 2382ft 167kts
05-Feb-19 23:56 33.100463 -117.384120 144 1882ft 174kts
05-Feb-19 23:57 33.060885 -117.351086 144 1491ft 169kts
05-Feb-19 23:58 33.021087 -117.325562 159 1493ft 160kts
05-Feb-19 23:59 32.978831 -117.308109 159 1498ft 160kts
06-Feb-19 00:00 32.936616 -117.290861 160 1499ft 156kts
06-Feb-19 00:01 32.897911 -117.275037 160 1502ft 142kts
06-Feb-19 00:02 32.862698 -117.261498 160 1491ft 119kts
06-Feb-19 00:03 32.847778 -117.235704 72 1498ft 116kts
06-Feb-19 00:04 32.856870 -117.199906 75 1020ft 104kts
06-Feb-19 00:05 32.863686 -117.169073 78 528ft 90kts
06-Feb-19 00:06 32.867043 -117.153522 74 435ft 15kts
06-Feb-19 00:07 32.868862 -117.152473 336 436ft 8kts
06-Feb-19 00:08 32.871013 -117.151431 76 434ft 11kts
06-Feb-19 00:09 32.872105 -117.148553 76 442ft 7kts
06-Feb-19 00:10 32.871736 -117.145961 87 448ft 8kts
06-Feb-19 00:11 32.871972 -117.144714 73 450ft 0kts
06-Feb-19 00:12 32.865692 -117.159645 75 429ft 62kts
06-Feb-19 00:13 32.865278 -117.161611 75 430ft 76kts
06-Feb-19 00:14 32.871972 -117.144714 73 450ft 0kts
06-Feb-19 00:15 32.871972 -117.144714 73 450ft 0kts
06-Feb-19 00:16 32.871972 -117.144714 73 450ft 0kts
06-Feb-19 00:17 32.871972 -117.144714 73 450ft 0kts
06-Feb-19 00:18 32.871972 -117.144714 73 450ft 0kts
06-Feb-19 00:19 32.871972 -117.144714 73 450ft 0kts
06-Feb-19 00:20 32.871972 -117.144714 73 450ft 0kts

Navigation Log

Ident Type
Flight plan parsing failed, navigation log unavailable